sensor_id;sensor_type;location;lat;lon;timestamp;temperature;humidity
975;DHT22;6115;49.296;10.602;2024-03-08T00:01:50;0.30;60.70
975;DHT22;6115;49.296;10.602;2024-03-08T00:06:50;0.20;61.00
975;DHT22;6115;49.296;10.602;2024-03-08T00:11:51;0.20;61.00
975;DHT22;6115;49.296;10.602;2024-03-08T00:16:52;0.10;61.00
975;DHT22;6115;49.296;10.602;2024-03-08T00:21:54;0.00;61.90
975;DHT22;6115;49.296;10.602;2024-03-08T00:26:55;-0.10;62.60
975;DHT22;6115;49.296;10.602;2024-03-08T00:31:56;-0.20;63.20
975;DHT22;6115;49.296;10.602;2024-03-08T00:36:57;-0.20;63.60
975;DHT22;6115;49.296;10.602;2024-03-08T00:41:57;-0.20;63.90
975;DHT22;6115;49.296;10.602;2024-03-08T00:46:58;-0.30;64.00
975;DHT22;6115;49.296;10.602;2024-03-08T00:51:59;-0.40;64.20
975;DHT22;6115;49.296;10.602;2024-03-08T00:56:59;-0.40;64.90
975;DHT22;6115;49.296;10.602;2024-03-08T01:02:03;-0.40;65.30
975;DHT22;6115;49.296;10.602;2024-03-08T01:07:03;-0.50;65.20
975;DHT22;6115;49.296;10.602;2024-03-08T01:12:04;-0.60;65.20
975;DHT22;6115;49.296;10.602;2024-03-08T01:17:07;-0.70;65.30
975;DHT22;6115;49.296;10.602;2024-03-08T01:22:09;-0.70;65.60
975;DHT22;6115;49.296;10.602;2024-03-08T01:27:10;-0.70;65.80
975;DHT22;6115;49.296;10.602;2024-03-08T01:32:12;-0.70;65.80
975;DHT22;6115;49.296;10.602;2024-03-08T01:37:12;-0.70;65.60
975;DHT22;6115;49.296;10.602;2024-03-08T01:42:14;-0.70;65.60
975;DHT22;6115;49.296;10.602;2024-03-08T01:47:18;-0.70;66.10
975;DHT22;6115;49.296;10.602;2024-03-08T01:52:18;-0.80;66.50
975;DHT22;6115;49.296;10.602;2024-03-08T01:57:21;-0.80;66.80
975;DHT22;6115;49.296;10.602;2024-03-08T02:02:22;-0.80;66.90
975;DHT22;6115;49.296;10.602;2024-03-08T02:07:22;-0.80;66.80
975;DHT22;6115;49.296;10.602;2024-03-08T02:12:23;-0.90;67.30
975;DHT22;6115;49.296;10.602;2024-03-08T02:17:24;-0.90;67.50
975;DHT22;6115;49.296;10.602;2024-03-08T02:22:24;-0.90;67.00
975;DHT22;6115;49.296;10.602;2024-03-08T02:27:25;-0.80;67.10
975;DHT22;6115;49.296;10.602;2024-03-08T02:32:26;-0.80;67.00
975;DHT22;6115;49.296;10.602;2024-03-08T02:37:26;-0.90;66.80
975;DHT22;6115;49.296;10.602;2024-03-08T02:42:28;-0.90;66.70
975;DHT22;6115;49.296;10.602;2024-03-08T02:47:29;-0.80;66.90
975;DHT22;6115;49.296;10.602;2024-03-08T02:52:31;-0.90;66.80
975;DHT22;6115;49.296;10.602;2024-03-08T02:57:32;-1.00;66.70
975;DHT22;6115;49.296;10.602;2024-03-08T03:02:33;-1.00;67.40
975;DHT22;6115;49.296;10.602;2024-03-08T03:07:34;-1.00;68.20
975;DHT22;6115;49.296;10.602;2024-03-08T03:12:34;-1.10;68.30
975;DHT22;6115;49.296;10.602;2024-03-08T03:17:35;-1.10;68.00
975;DHT22;6115;49.296;10.602;2024-03-08T03:22:36;-1.10;67.80
975;DHT22;6115;49.296;10.602;2024-03-08T03:27:37;-1.10;67.90
975;DHT22;6115;49.296;10.602;2024-03-08T03:32:39;-1.20;68.00
975;DHT22;6115;49.296;10.602;2024-03-08T03:37:47;-1.20;68.50
975;DHT22;6115;49.296;10.602;2024-03-08T03:43:03;-1.20;69.00
975;DHT22;6115;49.296;10.602;2024-03-08T03:48:07;-1.20;69.40
975;DHT22;6115;49.296;10.602;2024-03-08T03:53:11;-1.30;70.40
975;DHT22;6115;49.296;10.602;2024-03-08T03:58:13;-1.30;70.60
975;DHT22;6115;49.296;10.602;2024-03-08T04:03:14;-1.30;71.50
975;DHT22;6115;49.296;10.602;2024-03-08T04:08:15;-1.20;72.20
975;DHT22;6115;49.296;10.602;2024-03-08T04:13:16;-1.10;73.20
975;DHT22;6115;49.296;10.602;2024-03-08T04:18:17;-0.90;74.00
975;DHT22;6115;49.296;10.602;2024-03-08T04:23:18;-0.80;74.50
975;DHT22;6115;49.296;10.602;2024-03-08T04:28:19;-0.70;74.60
975;DHT22;6115;49.296;10.602;2024-03-08T04:33:20;-0.50;74.80
975;DHT22;6115;49.296;10.602;2024-03-08T04:38:22;-0.40;74.90
975;DHT22;6115;49.296;10.602;2024-03-08T04:43:23;-0.40;74.80
975;DHT22;6115;49.296;10.602;2024-03-08T04:48:26;-0.30;75.00
975;DHT22;6115;49.296;10.602;2024-03-08T04:53:29;-0.30;74.50
975;DHT22;6115;49.296;10.602;2024-03-08T04:58:30;-0.30;74.30
975;DHT22;6115;49.296;10.602;2024-03-08T05:03:30;-0.30;74.20
975;DHT22;6115;49.296;10.602;2024-03-08T05:08:31;-0.20;74.30
975;DHT22;6115;49.296;10.602;2024-03-08T05:13:31;-0.20;74.70
975;DHT22;6115;49.296;10.602;2024-03-08T05:18:33;-0.20;74.20
975;DHT22;6115;49.296;10.602;2024-03-08T05:23:33;-0.20;74.10
975;DHT22;6115;49.296;10.602;2024-03-08T05:28:34;-0.20;73.90
975;DHT22;6115;49.296;10.602;2024-03-08T05:33:35;-0.10;73.90
975;DHT22;6115;49.296;10.602;2024-03-08T05:38:35;-0.10;73.30
975;DHT22;6115;49.296;10.602;2024-03-08T05:43:36;-0.10;72.90
975;DHT22;6115;49.296;10.602;2024-03-08T05:48:36;-0.20;72.60
975;DHT22;6115;49.296;10.602;2024-03-08T05:53:37;-0.20;72.60
975;DHT22;6115;49.296;10.602;2024-03-08T05:58:38;-0.20;72.70
975;DHT22;6115;49.296;10.602;2024-03-08T06:03:39;-0.20;72.90
975;DHT22;6115;49.296;10.602;2024-03-08T06:08:45;-0.20;73.00
975;DHT22;6115;49.296;10.602;2024-03-08T06:13:48;-0.20;73.00
975;DHT22;6115;49.296;10.602;2024-03-08T06:18:48;-0.20;73.00
975;DHT22;6115;49.296;10.602;2024-03-08T06:23:49;-0.10;72.90
975;DHT22;6115;49.296;10.602;2024-03-08T06:28:50;-0.10;72.90
975;DHT22;6115;49.296;10.602;2024-03-08T06:33:51;0.00;72.90
975;DHT22;6115;49.296;10.602;2024-03-08T06:38:54;0.00;72.90
975;DHT22;6115;49.296;10.602;2024-03-08T06:43:56;0.10;72.80
975;DHT22;6115;49.296;10.602;2024-03-08T06:48:58;0.10;72.90
975;DHT22;6115;49.296;10.602;2024-03-08T06:53:58;0.20;73.10
975;DHT22;6115;49.296;10.602;2024-03-08T06:58:59;0.20;73.40
975;DHT22;6115;49.296;10.602;2024-03-08T07:03:59;0.40;73.30
975;DHT22;6115;49.296;10.602;2024-03-08T07:09:02;0.50;73.40
975;DHT22;6115;49.296;10.602;2024-03-08T07:14:03;0.60;73.30
975;DHT22;6115;49.296;10.602;2024-03-08T07:19:06;0.70;73.20
975;DHT22;6115;49.296;10.602;2024-03-08T07:24:06;0.90;72.90
975;DHT22;6115;49.296;10.602;2024-03-08T07:29:22;1.00;72.60
975;DHT22;6115;49.296;10.602;2024-03-08T07:34:23;1.10;72.20
975;DHT22;6115;49.296;10.602;2024-03-08T07:39:23;1.20;71.60
975;DHT22;6115;49.296;10.602;2024-03-08T07:44:25;1.50;71.90
975;DHT22;6115;49.296;10.602;2024-03-08T07:49:25;1.60;71.30
975;DHT22;6115;49.296;10.602;2024-03-08T07:54:26;1.80;70.70
975;DHT22;6115;49.296;10.602;2024-03-08T07:59:26;2.00;70.10
975;DHT22;6115;49.296;10.602;2024-03-08T08:04:27;2.10;69.10
975;DHT22;6115;49.296;10.602;2024-03-08T08:09:27;2.30;68.70
975;DHT22;6115;49.296;10.602;2024-03-08T08:14:38;2.50;68.00
975;DHT22;6115;49.296;10.602;2024-03-08T08:19:41;2.60;67.50
975;DHT22;6115;49.296;10.602;2024-03-08T08:24:41;2.70;66.60
975;DHT22;6115;49.296;10.602;2024-03-08T08:29:42;3.00;66.30
975;DHT22;6115;49.296;10.602;2024-03-08T08:34:44;3.20;65.10
975;DHT22;6115;49.296;10.602;2024-03-08T08:39:44;3.30;63.90
975;DHT22;6115;49.296;10.602;2024-03-08T08:44:45;3.50;63.20
975;DHT22;6115;49.296;10.602;2024-03-08T08:49:46;3.80;62.80
975;DHT22;6115;49.296;10.602;2024-03-08T08:54:47;4.00;60.70
975;DHT22;6115;49.296;10.602;2024-03-08T08:59:49;4.20;59.90
975;DHT22;6115;49.296;10.602;2024-03-08T09:04:50;4.40;59.30
975;DHT22;6115;49.296;10.602;2024-03-08T09:09:50;4.50;58.30
975;DHT22;6115;49.296;10.602;2024-03-08T09:14:51;4.80;57.70
975;DHT22;6115;49.296;10.602;2024-03-08T09:19:52;5.20;56.90
975;DHT22;6115;49.296;10.602;2024-03-08T09:24:52;5.70;55.90
975;DHT22;6115;49.296;10.602;2024-03-08T09:29:53;6.60;54.10
975;DHT22;6115;49.296;10.602;2024-03-08T09:34:54;7.20;52.30
975;DHT22;6115;49.296;10.602;2024-03-08T09:39:56;7.80;50.50
975;DHT22;6115;49.296;10.602;2024-03-08T09:44:59;7.90;49.20
975;DHT22;6115;49.296;10.602;2024-03-08T09:50:00;7.90;48.50
975;DHT22;6115;49.296;10.602;2024-03-08T09:55:01;8.40;47.70
975;DHT22;6115;49.296;10.602;2024-03-08T10:00:02;9.30;46.00
975;DHT22;6115;49.296;10.602;2024-03-08T10:05:08;9.70;45.50
975;DHT22;6115;49.296;10.602;2024-03-08T10:10:11;10.30;43.30
975;DHT22;6115;49.296;10.602;2024-03-08T10:15:12;10.50;41.90
975;DHT22;6115;49.296;10.602;2024-03-08T10:20:14;10.90;40.70
975;DHT22;6115;49.296;10.602;2024-03-08T10:25:15;11.40;39.00
975;DHT22;6115;49.296;10.602;2024-03-08T10:30:16;11.70;38.30
975;DHT22;6115;49.296;10.602;2024-03-08T10:35:21;12.00;37.70
975;DHT22;6115;49.296;10.602;2024-03-08T10:40:22;12.70;37.80
975;DHT22;6115;49.296;10.602;2024-03-08T10:45:30;12.70;36.60
975;DHT22;6115;49.296;10.602;2024-03-08T10:50:33;12.70;36.40
975;DHT22;6115;49.296;10.602;2024-03-08T10:55:37;13.10;36.00
975;DHT22;6115;49.296;10.602;2024-03-08T11:00:40;13.80;35.40
975;DHT22;6115;49.296;10.602;2024-03-08T11:05:41;13.30;34.90
975;DHT22;6115;49.296;10.602;2024-03-08T11:10:53;13.30;34.90
975;DHT22;6115;49.296;10.602;2024-03-08T11:15:55;13.40;35.00
975;DHT22;6115;49.296;10.602;2024-03-08T11:20:56;12.90;34.60
975;DHT22;6115;49.296;10.602;2024-03-08T11:25:58;12.60;34.30
975;DHT22;6115;49.296;10.602;2024-03-08T11:36:12;12.80;35.40
975;DHT22;6115;49.296;10.602;2024-03-08T11:41:21;13.10;35.30
975;DHT22;6115;49.296;10.602;2024-03-08T11:46:24;13.00;34.70
975;DHT22;6115;49.296;10.602;2024-03-08T11:51:25;12.80;33.50
975;DHT22;6115;49.296;10.602;2024-03-08T11:56:25;12.90;34.30
975;DHT22;6115;49.296;10.602;2024-03-08T12:01:27;13.00;33.00
975;DHT22;6115;49.296;10.602;2024-03-08T12:06:37;13.20;32.70
975;DHT22;6115;49.296;10.602;2024-03-08T12:11:40;13.40;32.60
975;DHT22;6115;49.296;10.602;2024-03-08T12:16:42;14.10;32.40
975;DHT22;6115;49.296;10.602;2024-03-08T12:21:43;14.30;31.80
975;DHT22;6115;49.296;10.602;2024-03-08T12:26:49;14.60;31.30
975;DHT22;6115;49.296;10.602;2024-03-08T12:31:53;14.30;31.00
975;DHT22;6115;49.296;10.602;2024-03-08T12:36:54;14.40;31.50
975;DHT22;6115;49.296;10.602;2024-03-08T12:41:55;14.60;31.30
975;DHT22;6115;49.296;10.602;2024-03-08T12:46:57;14.40;31.10
975;DHT22;6115;49.296;10.602;2024-03-08T12:51:59;14.40;31.10
975;DHT22;6115;49.296;10.602;2024-03-08T12:56:59;14.40;31.10
975;DHT22;6115;49.296;10.602;2024-03-08T13:02:00;14.10;30.90
975;DHT22;6115;49.296;10.602;2024-03-08T13:07:00;14.50;31.50
975;DHT22;6115;49.296;10.602;2024-03-08T13:12:01;14.60;30.90
975;DHT22;6115;49.296;10.602;2024-03-08T13:17:02;14.50;30.50
975;DHT22;6115;49.296;10.602;2024-03-08T13:22:04;14.70;30.40
975;DHT22;6115;49.296;10.602;2024-03-08T13:27:06;14.40;30.50
975;DHT22;6115;49.296;10.602;2024-03-08T13:32:17;14.80;29.50
975;DHT22;6115;49.296;10.602;2024-03-08T13:37:18;15.00;28.40
975;DHT22;6115;49.296;10.602;2024-03-08T13:42:20;15.20;28.90
975;DHT22;6115;49.296;10.602;2024-03-08T13:47:20;15.20;28.10
975;DHT22;6115;49.296;10.602;2024-03-08T13:52:21;14.80;28.80
975;DHT22;6115;49.296;10.602;2024-03-08T13:57:21;15.20;28.40
975;DHT22;6115;49.296;10.602;2024-03-08T14:02:25;15.10;28.10
975;DHT22;6115;49.296;10.602;2024-03-08T14:07:28;15.20;27.80
975;DHT22;6115;49.296;10.602;2024-03-08T14:12:33;15.10;27.70
975;DHT22;6115;49.296;10.602;2024-03-08T14:17:35;15.00;27.60
975;DHT22;6115;49.296;10.602;2024-03-08T14:22:36;15.30;27.80
975;DHT22;6115;49.296;10.602;2024-03-08T14:27:37;15.50;27.40
975;DHT22;6115;49.296;10.602;2024-03-08T14:32:37;15.20;27.80
975;DHT22;6115;49.296;10.602;2024-03-08T14:37:38;15.30;27.80
975;DHT22;6115;49.296;10.602;2024-03-08T14:42:41;15.20;27.70
975;DHT22;6115;49.296;10.602;2024-03-08T14:47:43;15.20;27.70
975;DHT22;6115;49.296;10.602;2024-03-08T14:52:44;14.80;28.20
975;DHT22;6115;49.296;10.602;2024-03-08T14:57:46;14.50;28.10
975;DHT22;6115;49.296;10.602;2024-03-08T15:02:47;14.30;28.40
975;DHT22;6115;49.296;10.602;2024-03-08T15:07:48;13.90;28.50
975;DHT22;6115;49.296;10.602;2024-03-08T15:12:50;13.80;28.80
975;DHT22;6115;49.296;10.602;2024-03-08T15:17:53;13.80;29.10
975;DHT22;6115;49.296;10.602;2024-03-08T15:22:57;13.70;29.70
975;DHT22;6115;49.296;10.602;2024-03-08T15:27:59;13.70;29.20
975;DHT22;6115;49.296;10.602;2024-03-08T15:32:59;13.60;29.40
975;DHT22;6115;49.296;10.602;2024-03-08T15:38:04;13.30;29.40
975;DHT22;6115;49.296;10.602;2024-03-08T15:43:04;13.10;29.50
975;DHT22;6115;49.296;10.602;2024-03-08T15:48:05;13.00;30.00
975;DHT22;6115;49.296;10.602;2024-03-08T15:53:06;12.60;30.30
975;DHT22;6115;49.296;10.602;2024-03-08T15:58:07;12.60;30.50
975;DHT22;6115;49.296;10.602;2024-03-08T16:03:08;12.60;30.70
975;DHT22;6115;49.296;10.602;2024-03-08T16:08:12;12.40;31.30
975;DHT22;6115;49.296;10.602;2024-03-08T16:13:18;12.20;32.40
975;DHT22;6115;49.296;10.602;2024-03-08T16:18:20;12.30;32.20
975;DHT22;6115;49.296;10.602;2024-03-08T16:23:22;12.10;32.00
975;DHT22;6115;49.296;10.602;2024-03-08T16:28:23;12.00;32.50
975;DHT22;6115;49.296;10.602;2024-03-08T16:33:28;12.00;32.30
975;DHT22;6115;49.296;10.602;2024-03-08T16:38:28;11.80;33.70
975;DHT22;6115;49.296;10.602;2024-03-08T16:43:29;11.40;33.30
975;DHT22;6115;49.296;10.602;2024-03-08T16:48:30;11.30;34.40
975;DHT22;6115;49.296;10.602;2024-03-08T16:53:30;10.90;34.50
975;DHT22;6115;49.296;10.602;2024-03-08T16:58:32;10.50;34.70
975;DHT22;6115;49.296;10.602;2024-03-08T17:03:34;10.00;34.60
975;DHT22;6115;49.296;10.602;2024-03-08T17:08:34;9.60;36.00
975;DHT22;6115;49.296;10.602;2024-03-08T17:13:35;9.40;36.40
975;DHT22;6115;49.296;10.602;2024-03-08T17:18:36;9.20;37.10
975;DHT22;6115;49.296;10.602;2024-03-08T17:23:37;9.00;37.40
975;DHT22;6115;49.296;10.602;2024-03-08T17:28:37;8.80;37.80
975;DHT22;6115;49.296;10.602;2024-03-08T17:33:42;8.70;38.20
975;DHT22;6115;49.296;10.602;2024-03-08T17:38:43;8.50;38.50
975;DHT22;6115;49.296;10.602;2024-03-08T17:43:50;8.40;38.50
975;DHT22;6115;49.296;10.602;2024-03-08T17:48:51;8.20;38.60
975;DHT22;6115;49.296;10.602;2024-03-08T17:53:54;8.00;38.80
975;DHT22;6115;49.296;10.602;2024-03-08T17:58:54;7.90;39.50
975;DHT22;6115;49.296;10.602;2024-03-08T18:03:56;7.70;40.00
975;DHT22;6115;49.296;10.602;2024-03-08T18:08:56;7.50;40.40
975;DHT22;6115;49.296;10.602;2024-03-08T18:13:57;7.40;40.30
975;DHT22;6115;49.296;10.602;2024-03-08T18:18:57;7.20;40.20
975;DHT22;6115;49.296;10.602;2024-03-08T18:23:59;7.00;41.20
975;DHT22;6115;49.296;10.602;2024-03-08T18:29:04;6.80;42.30
975;DHT22;6115;49.296;10.602;2024-03-08T18:34:09;6.70;43.70
975;DHT22;6115;49.296;10.602;2024-03-08T18:39:10;6.60;44.50
975;DHT22;6115;49.296;10.602;2024-03-08T18:44:12;6.50;45.90
975;DHT22;6115;49.296;10.602;2024-03-08T18:49:14;6.40;46.60
975;DHT22;6115;49.296;10.602;2024-03-08T18:54:14;6.30;47.60
975;DHT22;6115;49.296;10.602;2024-03-08T18:59:15;6.20;48.40
975;DHT22;6115;49.296;10.602;2024-03-08T19:04:16;6.10;48.40
975;DHT22;6115;49.296;10.602;2024-03-08T19:09:17;6.00;49.20
975;DHT22;6115;49.296;10.602;2024-03-08T19:14:17;5.90;49.70
975;DHT22;6115;49.296;10.602;2024-03-08T19:19:18;5.80;50.20
975;DHT22;6115;49.296;10.602;2024-03-08T19:24:21;5.70;50.40
975;DHT22;6115;49.296;10.602;2024-03-08T19:29:22;5.60;50.80
975;DHT22;6115;49.296;10.602;2024-03-08T19:34:25;5.50;51.40
975;DHT22;6115;49.296;10.602;2024-03-08T19:39:26;5.30;51.70
975;DHT22;6115;49.296;10.602;2024-03-08T19:44:28;5.20;52.00
975;DHT22;6115;49.296;10.602;2024-03-08T19:49:28;5.20;52.10
975;DHT22;6115;49.296;10.602;2024-03-08T19:54:29;5.10;51.90
975;DHT22;6115;49.296;10.602;2024-03-08T19:59:29;5.10;52.30
975;DHT22;6115;49.296;10.602;2024-03-08T20:04:31;5.00;52.80
975;DHT22;6115;49.296;10.602;2024-03-08T20:09:31;4.90;53.00
975;DHT22;6115;49.296;10.602;2024-03-08T20:14:32;4.80;53.40
975;DHT22;6115;49.296;10.602;2024-03-08T20:19:35;4.70;53.70
975;DHT22;6115;49.296;10.602;2024-03-08T20:24:37;4.60;54.10
975;DHT22;6115;49.296;10.602;2024-03-08T20:29:38;4.60;54.40
975;DHT22;6115;49.296;10.602;2024-03-08T20:34:41;4.50;54.60
975;DHT22;6115;49.296;10.602;2024-03-08T20:39:45;4.40;54.90
975;DHT22;6115;49.296;10.602;2024-03-08T20:44:47;4.40;55.20
975;DHT22;6115;49.296;10.602;2024-03-08T20:49:47;4.30;55.70
975;DHT22;6115;49.296;10.602;2024-03-08T20:54:50;4.20;55.60
975;DHT22;6115;49.296;10.602;2024-03-08T20:59:51;4.10;55.50
975;DHT22;6115;49.296;10.602;2024-03-08T21:04:51;4.00;55.40
975;DHT22;6115;49.296;10.602;2024-03-08T21:09:52;4.00;55.60
975;DHT22;6115;49.296;10.602;2024-03-08T21:14:54;3.90;56.20
975;DHT22;6115;49.296;10.602;2024-03-08T21:19:54;3.80;56.50
975;DHT22;6115;49.296;10.602;2024-03-08T21:24:56;3.70;57.10
975;DHT22;6115;49.296;10.602;2024-03-08T21:29:57;3.60;57.00
975;DHT22;6115;49.296;10.602;2024-03-08T21:34:58;3.60;56.80
975;DHT22;6115;49.296;10.602;2024-03-08T21:39:58;3.50;57.00
975;DHT22;6115;49.296;10.602;2024-03-08T21:45:02;3.40;57.20
975;DHT22;6115;49.296;10.602;2024-03-08T21:50:04;3.30;57.50
975;DHT22;6115;49.296;10.602;2024-03-08T21:55:05;3.20;57.90
975;DHT22;6115;49.296;10.602;2024-03-08T22:00:07;3.20;57.80
975;DHT22;6115;49.296;10.602;2024-03-08T22:05:12;3.10;57.70
975;DHT22;6115;49.296;10.602;2024-03-08T22:10:17;2.90;58.10
975;DHT22;6115;49.296;10.602;2024-03-08T22:15:23;2.90;58.40
975;DHT22;6115;49.296;10.602;2024-03-08T22:20:23;2.80;58.10
975;DHT22;6115;49.296;10.602;2024-03-08T22:25:26;2.70;58.40
975;DHT22;6115;49.296;10.602;2024-03-08T22:30:27;2.60;58.60
975;DHT22;6115;49.296;10.602;2024-03-08T22:35:28;2.50;59.00
975;DHT22;6115;49.296;10.602;2024-03-08T22:40:28;2.40;59.30
975;DHT22;6115;49.296;10.602;2024-03-08T22:45:32;2.30;59.50
975;DHT22;6115;49.296;10.602;2024-03-08T22:50:32;2.20;59.80
975;DHT22;6115;49.296;10.602;2024-03-08T22:55:33;2.20;60.10
975;DHT22;6115;49.296;10.602;2024-03-08T23:00:34;2.10;60.80
975;DHT22;6115;49.296;10.602;2024-03-08T23:05:37;2.10;61.00
975;DHT22;6115;49.296;10.602;2024-03-08T23:10:38;2.00;60.90
975;DHT22;6115;49.296;10.602;2024-03-08T23:15:40;1.90;61.20
975;DHT22;6115;49.296;10.602;2024-03-08T23:20:42;1.80;61.60
975;DHT22;6115;49.296;10.602;2024-03-08T23:25:42;1.90;61.50
975;DHT22;6115;49.296;10.602;2024-03-08T23:30:45;1.80;61.10
975;DHT22;6115;49.296;10.602;2024-03-08T23:35:45;1.70;61.00
975;DHT22;6115;49.296;10.602;2024-03-08T23:40:46;1.60;61.00
975;DHT22;6115;49.296;10.602;2024-03-08T23:45:47;1.60;61.00
975;DHT22;6115;49.296;10.602;2024-03-08T23:50:49;1.40;61.70
975;DHT22;6115;49.296;10.602;2024-03-08T23:55:49;1.40;62.20
